sensor_id;sensor_type;location;lat;lon;timestamp;P1;P2;P0
31163;PMS5003;17796;49.296;-117.656;2024-03-17T00:06:39;5;5;
31163;PMS5003;17796;49.296;-117.656;2024-03-17T00:21:42;6;6;
31163;PMS5003;17796;49.296;-117.656;2024-03-17T00:36:47;3;3;
31163;PMS5003;17796;49.296;-117.656;2024-03-17T00:51:50;3;3;
31163;PMS5003;17796;49.296;-117.656;2024-03-17T01:06:54;2;2;
31163;PMS5003;17796;49.296;-117.656;2024-03-17T01:21:57;1;1;
31163;PMS5003;17796;49.296;-117.656;2024-03-17T01:37:01;2;2;
31163;PMS5003;17796;49.296;-117.656;2024-03-17T01:52:04;1;1;
31163;PMS5003;17796;49.296;-117.656;2024-03-17T02:07:08;0;0;
31163;PMS5003;17796;49.296;-117.656;2024-03-17T02:22:14;1;1;
31163;PMS5003;17796;49.296;-117.656;2024-03-17T02:37:18;1;1;
31163;PMS5003;17796;49.296;-117.656;2024-03-17T02:52:21;0;0;
31163;PMS5003;17796;49.296;-117.656;2024-03-17T03:07:25;4;2;
31163;PMS5003;17796;49.296;-117.656;2024-03-17T03:22:28;2;2;
31163;PMS5003;17796;49.296;-117.656;2024-03-17T03:37:32;2;2;
31163;PMS5003;17796;49.296;-117.656;2024-03-17T03:52:36;1;0;
31163;PMS5003;17796;49.296;-117.656;2024-03-17T04:07:40;7;5;
31163;PMS5003;17796;49.296;-117.656;2024-03-17T04:22:44;5;4;
31163;PMS5003;17796;49.296;-117.656;2024-03-17T04:37:47;6;4;
31163;PMS5003;17796;49.296;-117.656;2024-03-17T04:52:51;5;5;
31163;PMS5003;17796;49.296;-117.656;2024-03-17T05:07:54;9;5;
31163;PMS5003;17796;49.296;-117.656;2024-03-17T05:22:58;8;4;
31163;PMS5003;17796;49.296;-117.656;2024-03-17T05:38:01;5;5;
31163;PMS5003;17796;49.296;-117.656;2024-03-17T05:53:05;7;6;
31163;PMS5003;17796;49.296;-117.656;2024-03-17T06:08:09;9;8;
31163;PMS5003;17796;49.296;-117.656;2024-03-17T06:23:13;2;2;
31163;PMS5003;17796;49.296;-117.656;2024-03-17T06:38:17;5;4;
31163;PMS5003;17796;49.296;-117.656;2024-03-17T06:53:21;7;6;
31163;PMS5003;17796;49.296;-117.656;2024-03-17T07:08:26;5;3;
31163;PMS5003;17796;49.296;-117.656;2024-03-17T07:23:30;2;1;
31163;PMS5003;17796;49.296;-117.656;2024-03-17T07:38:34;3;3;
31163;PMS5003;17796;49.296;-117.656;2024-03-17T07:53:38;3;3;
31163;PMS5003;17796;49.296;-117.656;2024-03-17T08:08:42;1;1;
31163;PMS5003;17796;49.296;-117.656;2024-03-17T08:23:45;2;2;
31163;PMS5003;17796;49.296;-117.656;2024-03-17T08:38:49;2;2;
31163;PMS5003;17796;49.296;-117.656;2024-03-17T08:53:52;1;1;
31163;PMS5003;17796;49.296;-117.656;2024-03-17T09:08:56;4;3;
31163;PMS5003;17796;49.296;-117.656;2024-03-17T09:23:59;1;1;
31163;PMS5003;17796;49.296;-117.656;2024-03-17T09:39:03;2;2;
31163;PMS5003;17796;49.296;-117.656;2024-03-17T09:54:17;3;2;
31163;PMS5003;17796;49.296;-117.656;2024-03-17T10:09:21;8;6;
31163;PMS5003;17796;49.296;-117.656;2024-03-17T10:24:25;2;2;
31163;PMS5003;17796;49.296;-117.656;2024-03-17T10:39:30;7;5;
31163;PMS5003;17796;49.296;-117.656;2024-03-17T10:54:34;4;3;
31163;PMS5003;17796;49.296;-117.656;2024-03-17T11:09:38;13;12;
31163;PMS5003;17796;49.296;-117.656;2024-03-17T11:24:41;7;5;
31163;PMS5003;17796;49.296;-117.656;2024-03-17T11:39:51;4;4;
31163;PMS5003;17796;49.296;-117.656;2024-03-17T11:54:55;8;6;
31163;PMS5003;17796;49.296;-117.656;2024-03-17T12:09:58;6;6;
31163;PMS5003;17796;49.296;-117.656;2024-03-17T12:25:03;5;5;
31163;PMS5003;17796;49.296;-117.656;2024-03-17T12:40:22;8;6;
31163;PMS5003;17796;49.296;-117.656;2024-03-17T12:55:26;11;8;
31163;PMS5003;17796;49.296;-117.656;2024-03-17T13:10:30;14;8;
31163;PMS5003;17796;49.296;-117.656;2024-03-17T13:25:34;14;12;
31163;PMS5003;17796;49.296;-117.656;2024-03-17T13:40:39;9;9;
31163;PMS5003;17796;49.296;-117.656;2024-03-17T13:55:43;17;13;
31163;PMS5003;17796;49.296;-117.656;2024-03-17T14:10:46;13;13;
31163;PMS5003;17796;49.296;-117.656;2024-03-17T14:25:51;11;8;
31163;PMS5003;17796;49.296;-117.656;2024-03-17T14:40:55;12;7;
31163;PMS5003;17796;49.296;-117.656;2024-03-17T14:55:58;9;9;
31163;PMS5003;17796;49.296;-117.656;2024-03-17T15:11:03;10;7;
31163;PMS5003;17796;49.296;-117.656;2024-03-17T15:26:07;14;11;
31163;PMS5003;17796;49.296;-117.656;2024-03-17T15:41:12;11;11;
31163;PMS5003;17796;49.296;-117.656;2024-03-17T15:56:16;13;10;
31163;PMS5003;17796;49.296;-117.656;2024-03-17T16:11:24;13;8;
31163;PMS5003;17796;49.296;-117.656;2024-03-17T16:26:30;14;11;
31163;PMS5003;17796;49.296;-117.656;2024-03-17T16:41:34;13;10;
31163;PMS5003;17796;49.296;-117.656;2024-03-17T16:56:38;13;13;
31163;PMS5003;17796;49.296;-117.656;2024-03-17T17:11:42;13;12;
31163;PMS5003;17796;49.296;-117.656;2024-03-17T17:26:46;11;9;
31163;PMS5003;17796;49.296;-117.656;2024-03-17T17:41:50;21;14;
31163;PMS5003;17796;49.296;-117.656;2024-03-17T17:56:54;15;11;
31163;PMS5003;17796;49.296;-117.656;2024-03-17T18:11:58;16;15;
31163;PMS5003;17796;49.296;-117.656;2024-03-17T18:27:01;12;8;
31163;PMS5003;17796;49.296;-117.656;2024-03-17T18:42:06;12;12;
31163;PMS5003;17796;49.296;-117.656;2024-03-17T18:57:10;13;10;
31163;PMS5003;17796;49.296;-117.656;2024-03-17T19:12:13;12;11;
31163;PMS5003;17796;49.296;-117.656;2024-03-17T19:27:17;12;11;
31163;PMS5003;17796;49.296;-117.656;2024-03-17T19:42:21;13;12;
31163;PMS5003;17796;49.296;-117.656;2024-03-17T19:57:25;13;11;
31163;PMS5003;17796;49.296;-117.656;2024-03-17T20:12:28;13;12;
31163;PMS5003;17796;49.296;-117.656;2024-03-17T20:27:33;13;11;
31163;PMS5003;17796;49.296;-117.656;2024-03-17T20:42:38;11;10;
31163;PMS5003;17796;49.296;-117.656;2024-03-17T20:57:41;8;6;
31163;PMS5003;17796;49.296;-117.656;2024-03-17T21:12:47;12;10;
31163;PMS5003;17796;49.296;-117.656;2024-03-17T21:27:51;11;9;
31163;PMS5003;17796;49.296;-117.656;2024-03-17T21:42:55;13;11;
31163;PMS5003;17796;49.296;-117.656;2024-03-17T21:57:58;12;9;
31163;PMS5003;17796;49.296;-117.656;2024-03-17T22:13:03;10;10;
31163;PMS5003;17796;49.296;-117.656;2024-03-17T22:28:07;12;11;
31163;PMS5003;17796;49.296;-117.656;2024-03-17T22:43:11;13;11;
31163;PMS5003;17796;49.296;-117.656;2024-03-17T22:58:15;11;11;
31163;PMS5003;17796;49.296;-117.656;2024-03-17T23:13:19;19;13;
31163;PMS5003;17796;49.296;-117.656;2024-03-17T23:28:23;12;8;
31163;PMS5003;17796;49.296;-117.656;2024-03-17T23:43:27;11;8;
31163;PMS5003;17796;49.296;-117.656;2024-03-17T23:58:30;10;9;
